sensor_id;sensor_type;location;lat;lon;timestamp;P1;durP1;ratioP1;P2;durP2;ratioP2
16314;SDS011;8266;52.150;4.768;2023-09-18T00:02:25;11.70;;;10.48;;
16314;SDS011;8266;52.150;4.768;2023-09-18T00:04:53;12.18;;;11.00;;
16314;SDS011;8266;52.150;4.768;2023-09-18T00:07:21;13.05;;;11.45;;
16314;SDS011;8266;52.150;4.768;2023-09-18T00:09:48;12.02;;;10.93;;
16314;SDS011;8266;52.150;4.768;2023-09-18T00:12:16;12.65;;;11.45;;
16314;SDS011;8266;52.150;4.768;2023-09-18T00:14:43;13.35;;;12.05;;
16314;SDS011;8266;52.150;4.768;2023-09-18T00:17:13;13.30;;;11.80;;
16314;SDS011;8266;52.150;4.768;2023-09-18T00:19:41;14.75;;;13.23;;
16314;SDS011;8266;52.150;4.768;2023-09-18T00:22:08;13.02;;;11.82;;
16314;SDS011;8266;52.150;4.768;2023-09-18T00:24:37;13.52;;;12.23;;
16314;SDS011;8266;52.150;4.768;2023-09-18T00:27:04;13.32;;;11.93;;
16314;SDS011;8266;52.150;4.768;2023-09-18T00:29:31;13.13;;;11.85;;
16314;SDS011;8266;52.150;4.768;2023-09-18T00:31:58;13.70;;;12.30;;
16314;SDS011;8266;52.150;4.768;2023-09-18T00:34:25;14.02;;;12.73;;
16314;SDS011;8266;52.150;4.768;2023-09-18T00:36:52;13.50;;;12.13;;
16314;SDS011;8266;52.150;4.768;2023-09-18T00:39:19;13.40;;;12.00;;
16314;SDS011;8266;52.150;4.768;2023-09-18T00:41:47;13.45;;;12.18;;
16314;SDS011;8266;52.150;4.768;2023-09-18T00:44:18;13.80;;;12.45;;
16314;SDS011;8266;52.150;4.768;2023-09-18T00:46:45;13.13;;;11.88;;
16314;SDS011;8266;52.150;4.768;2023-09-18T00:49:13;12.57;;;11.38;;
16314;SDS011;8266;52.150;4.768;2023-09-18T00:51:40;13.65;;;12.35;;
16314;SDS011;8266;52.150;4.768;2023-09-18T00:54:07;13.00;;;11.57;;
16314;SDS011;8266;52.150;4.768;2023-09-18T00:56:36;13.20;;;11.80;;
16314;SDS011;8266;52.150;4.768;2023-09-18T00:59:04;13.23;;;12.00;;
16314;SDS011;8266;52.150;4.768;2023-09-18T01:01:31;14.40;;;13.00;;
16314;SDS011;8266;52.150;4.768;2023-09-18T01:03:58;12.63;;;11.32;;
16314;SDS011;8266;52.150;4.768;2023-09-18T01:06:26;13.73;;;12.48;;
16314;SDS011;8266;52.150;4.768;2023-09-18T01:08:55;14.45;;;13.05;;
16314;SDS011;8266;52.150;4.768;2023-09-18T01:11:26;14.02;;;12.63;;
16314;SDS011;8266;52.150;4.768;2023-09-18T01:13:58;12.93;;;11.73;;
16314;SDS011;8266;52.150;4.768;2023-09-18T01:16:34;13.75;;;12.50;;
16314;SDS011;8266;52.150;4.768;2023-09-18T01:19:09;12.73;;;11.00;;
16314;SDS011;8266;52.150;4.768;2023-09-18T01:21:37;13.30;;;11.63;;
16314;SDS011;8266;52.150;4.768;2023-09-18T01:24:06;14.00;;;12.70;;
16314;SDS011;8266;52.150;4.768;2023-09-18T01:26:33;13.05;;;11.75;;
16314;SDS011;8266;52.150;4.768;2023-09-18T01:29:00;13.18;;;12.02;;
16314;SDS011;8266;52.150;4.768;2023-09-18T01:31:27;13.30;;;11.95;;
16314;SDS011;8266;52.150;4.768;2023-09-18T01:33:54;13.60;;;12.30;;
16314;SDS011;8266;52.150;4.768;2023-09-18T01:36:22;13.70;;;12.35;;
16314;SDS011;8266;52.150;4.768;2023-09-18T01:38:50;13.70;;;12.30;;
16314;SDS011;8266;52.150;4.768;2023-09-18T01:41:18;13.00;;;11.80;;
16314;SDS011;8266;52.150;4.768;2023-09-18T01:43:46;13.18;;;11.93;;
16314;SDS011;8266;52.150;4.768;2023-09-18T01:46:13;13.00;;;11.52;;
16314;SDS011;8266;52.150;4.768;2023-09-18T01:48:44;13.50;;;12.20;;
16314;SDS011;8266;52.150;4.768;2023-09-18T01:51:13;14.75;;;13.32;;
16314;SDS011;8266;52.150;4.768;2023-09-18T01:53:40;14.50;;;13.20;;
16314;SDS011;8266;52.150;4.768;2023-09-18T01:56:08;13.80;;;12.40;;
16314;SDS011;8266;52.150;4.768;2023-09-18T01:58:36;13.95;;;12.65;;
16314;SDS011;8266;52.150;4.768;2023-09-18T02:01:03;15.27;;;12.73;;
16314;SDS011;8266;52.150;4.768;2023-09-18T02:03:30;14.73;;;13.43;;
16314;SDS011;8266;52.150;4.768;2023-09-18T02:05:57;12.55;;;11.43;;
16314;SDS011;8266;52.150;4.768;2023-09-18T02:08:24;13.18;;;11.98;;
16314;SDS011;8266;52.150;4.768;2023-09-18T02:10:51;12.98;;;11.75;;
16314;SDS011;8266;52.150;4.768;2023-09-18T02:13:17;14.50;;;13.05;;
16314;SDS011;8266;52.150;4.768;2023-09-18T02:15:46;13.90;;;12.60;;
16314;SDS011;8266;52.150;4.768;2023-09-18T02:18:13;14.30;;;12.85;;
16314;SDS011;8266;52.150;4.768;2023-09-18T02:20:41;13.80;;;12.52;;
16314;SDS011;8266;52.150;4.768;2023-09-18T02:23:09;15.98;;;12.80;;
16314;SDS011;8266;52.150;4.768;2023-09-18T02:25:36;15.23;;;13.63;;
16314;SDS011;8266;52.150;4.768;2023-09-18T02:28:04;15.80;;;13.93;;
16314;SDS011;8266;52.150;4.768;2023-09-18T02:30:31;14.02;;;12.65;;
16314;SDS011;8266;52.150;4.768;2023-09-18T02:32:59;15.10;;;13.70;;
16314;SDS011;8266;52.150;4.768;2023-09-18T02:35:28;15.70;;;14.20;;
16314;SDS011;8266;52.150;4.768;2023-09-18T02:37:55;13.95;;;12.57;;
16314;SDS011;8266;52.150;4.768;2023-09-18T02:40:22;13.80;;;12.57;;
16314;SDS011;8266;52.150;4.768;2023-09-18T02:42:49;15.65;;;14.25;;
16314;SDS011;8266;52.150;4.768;2023-09-18T02:45:16;14.07;;;12.68;;
16314;SDS011;8266;52.150;4.768;2023-09-18T02:47:43;14.55;;;13.15;;
16314;SDS011;8266;52.150;4.768;2023-09-18T02:50:11;15.23;;;13.80;;
16314;SDS011;8266;52.150;4.768;2023-09-18T02:52:38;14.25;;;12.85;;
16314;SDS011;8266;52.150;4.768;2023-09-18T02:55:05;13.07;;;11.73;;
16314;SDS011;8266;52.150;4.768;2023-09-18T02:57:34;14.45;;;12.95;;
16314;SDS011;8266;52.150;4.768;2023-09-18T03:00:03;13.05;;;11.85;;
16314;SDS011;8266;52.150;4.768;2023-09-18T03:02:30;12.93;;;11.73;;
16314;SDS011;8266;52.150;4.768;2023-09-18T03:04:57;14.07;;;12.60;;
16314;SDS011;8266;52.150;4.768;2023-09-18T03:07:26;12.63;;;11.52;;
16314;SDS011;8266;52.150;4.768;2023-09-18T03:09:54;12.55;;;11.35;;
16314;SDS011;8266;52.150;4.768;2023-09-18T03:12:21;13.15;;;12.00;;
16314;SDS011;8266;52.150;4.768;2023-09-18T03:14:48;14.50;;;12.95;;
16314;SDS011;8266;52.150;4.768;2023-09-18T03:17:16;14.75;;;13.00;;
16314;SDS011;8266;52.150;4.768;2023-09-18T03:19:47;13.80;;;12.55;;
16314;SDS011;8266;52.150;4.768;2023-09-18T03:22:15;13.23;;;12.02;;
16314;SDS011;8266;52.150;4.768;2023-09-18T03:24:44;13.23;;;12.07;;
16314;SDS011;8266;52.150;4.768;2023-09-18T03:27:11;12.68;;;11.52;;
16314;SDS011;8266;52.150;4.768;2023-09-18T03:29:38;13.15;;;11.95;;
16314;SDS011;8266;52.150;4.768;2023-09-18T03:32:05;12.35;;;11.25;;
16314;SDS011;8266;52.150;4.768;2023-09-18T03:34:37;12.48;;;11.38;;
16314;SDS011;8266;52.150;4.768;2023-09-18T03:37:04;14.07;;;11.95;;
16314;SDS011;8266;52.150;4.768;2023-09-18T03:39:31;14.02;;;12.73;;
16314;SDS011;8266;52.150;4.768;2023-09-18T03:41:59;13.15;;;11.95;;
16314;SDS011;8266;52.150;4.768;2023-09-18T03:44:26;15.38;;;13.57;;
16314;SDS011;8266;52.150;4.768;2023-09-18T03:46:53;13.90;;;12.60;;
16314;SDS011;8266;52.150;4.768;2023-09-18T03:49:20;14.38;;;12.95;;
16314;SDS011;8266;52.150;4.768;2023-09-18T03:51:48;13.80;;;12.55;;
16314;SDS011;8266;52.150;4.768;2023-09-18T03:54:15;14.43;;;13.05;;
16314;SDS011;8266;52.150;4.768;2023-09-18T03:56:42;13.23;;;12.02;;
16314;SDS011;8266;52.150;4.768;2023-09-18T03:59:12;14.65;;;13.23;;
16314;SDS011;8266;52.150;4.768;2023-09-18T04:01:39;13.68;;;12.27;;
16314;SDS011;8266;52.150;4.768;2023-09-18T04:04:06;13.05;;;11.77;;
16314;SDS011;8266;52.150;4.768;2023-09-18T04:06:36;13.25;;;11.95;;
16314;SDS011;8266;52.150;4.768;2023-09-18T04:09:04;12.45;;;11.02;;
16314;SDS011;8266;52.150;4.768;2023-09-18T04:11:31;12.32;;;10.20;;
16314;SDS011;8266;52.150;4.768;2023-09-18T04:13:58;11.18;;;10.07;;
16314;SDS011;8266;52.150;4.768;2023-09-18T04:16:26;11.73;;;10.63;;
16314;SDS011;8266;52.150;4.768;2023-09-18T04:18:54;11.38;;;10.27;;
16314;SDS011;8266;52.150;4.768;2023-09-18T04:21:21;10.52;;;9.48;;
16314;SDS011;8266;52.150;4.768;2023-09-18T04:23:49;10.45;;;9.32;;
16314;SDS011;8266;52.150;4.768;2023-09-18T04:26:22;10.02;;;9.02;;
16314;SDS011;8266;52.150;4.768;2023-09-18T04:28:49;9.80;;;8.85;;
16314;SDS011;8266;52.150;4.768;2023-09-18T04:31:16;9.32;;;8.43;;
16314;SDS011;8266;52.150;4.768;2023-09-18T04:33:45;11.60;;;9.57;;
16314;SDS011;8266;52.150;4.768;2023-09-18T04:36:12;11.02;;;9.82;;
16314;SDS011;8266;52.150;4.768;2023-09-18T04:38:39;10.30;;;9.30;;
16314;SDS011;8266;52.150;4.768;2023-09-18T04:41:06;10.57;;;9.68;;
16314;SDS011;8266;52.150;4.768;2023-09-18T04:43:34;10.90;;;9.52;;
16314;SDS011;8266;52.150;4.768;2023-09-18T04:46:01;10.30;;;9.40;;
16314;SDS011;8266;52.150;4.768;2023-09-18T04:48:30;10.32;;;9.32;;
16314;SDS011;8266;52.150;4.768;2023-09-18T04:50:58;10.40;;;9.50;;
16314;SDS011;8266;52.150;4.768;2023-09-18T04:53:27;10.82;;;8.85;;
16314;SDS011;8266;52.150;4.768;2023-09-18T04:55:54;8.93;;;8.13;;
16314;SDS011;8266;52.150;4.768;2023-09-18T04:58:21;9.38;;;8.38;;
16314;SDS011;8266;52.150;4.768;2023-09-18T05:00:53;9.48;;;8.57;;
16314;SDS011;8266;52.150;4.768;2023-09-18T05:03:20;9.52;;;8.68;;
16314;SDS011;8266;52.150;4.768;2023-09-18T05:05:48;10.48;;;9.57;;
16314;SDS011;8266;52.150;4.768;2023-09-18T05:08:16;8.48;;;7.68;;
16314;SDS011;8266;52.150;4.768;2023-09-18T05:10:44;10.02;;;8.82;;
16314;SDS011;8266;52.150;4.768;2023-09-18T05:13:12;11.13;;;9.70;;
16314;SDS011;8266;52.150;4.768;2023-09-18T05:15:39;9.20;;;7.68;;
16314;SDS011;8266;52.150;4.768;2023-09-18T05:18:06;8.45;;;7.60;;
16314;SDS011;8266;52.150;4.768;2023-09-18T05:20:34;7.90;;;7.13;;
16314;SDS011;8266;52.150;4.768;2023-09-18T05:23:01;7.55;;;6.82;;
16314;SDS011;8266;52.150;4.768;2023-09-18T05:25:30;7.00;;;6.40;;
16314;SDS011;8266;52.150;4.768;2023-09-18T05:27:58;7.20;;;6.57;;
16314;SDS011;8266;52.150;4.768;2023-09-18T05:30:26;7.25;;;6.55;;
16314;SDS011;8266;52.150;4.768;2023-09-18T05:32:54;6.30;;;5.80;;
16314;SDS011;8266;52.150;4.768;2023-09-18T05:35:21;7.05;;;6.38;;
16314;SDS011;8266;52.150;4.768;2023-09-18T05:37:49;6.30;;;5.70;;
16314;SDS011;8266;52.150;4.768;2023-09-18T05:40:17;6.00;;;5.50;;
16314;SDS011;8266;52.150;4.768;2023-09-18T05:42:46;5.53;;;5.03;;
16314;SDS011;8266;52.150;4.768;2023-09-18T05:45:13;5.13;;;4.63;;
16314;SDS011;8266;52.150;4.768;2023-09-18T05:47:41;7.10;;;5.05;;
16314;SDS011;8266;52.150;4.768;2023-09-18T05:50:09;5.30;;;4.80;;
16314;SDS011;8266;52.150;4.768;2023-09-18T05:52:40;6.07;;;4.47;;
16314;SDS011;8266;52.150;4.768;2023-09-18T05:55:08;6.00;;;4.88;;
16314;SDS011;8266;52.150;4.768;2023-09-18T05:57:35;6.00;;;4.90;;
16314;SDS011;8266;52.150;4.768;2023-09-18T06:00:05;9.10;;;4.97;;
16314;SDS011;8266;52.150;4.768;2023-09-18T06:02:38;4.43;;;4.03;;
16314;SDS011;8266;52.150;4.768;2023-09-18T06:05:05;5.43;;;4.78;;
16314;SDS011;8266;52.150;4.768;2023-09-18T06:07:36;7.70;;;4.90;;
16314;SDS011;8266;52.150;4.768;2023-09-18T06:10:03;4.93;;;4.43;;
16314;SDS011;8266;52.150;4.768;2023-09-18T06:12:31;5.68;;;4.85;;
16314;SDS011;8266;52.150;4.768;2023-09-18T06:14:58;4.45;;;3.95;;
16314;SDS011;8266;52.150;4.768;2023-09-18T06:17:26;5.20;;;4.47;;
16314;SDS011;8266;52.150;4.768;2023-09-18T06:19:53;5.57;;;5.00;;
16314;SDS011;8266;52.150;4.768;2023-09-18T06:22:20;5.50;;;4.95;;
16314;SDS011;8266;52.150;4.768;2023-09-18T06:24:47;6.70;;;5.53;;
16314;SDS011;8266;52.150;4.768;2023-09-18T06:27:14;5.00;;;4.25;;
16314;SDS011;8266;52.150;4.768;2023-09-18T06:29:41;5.10;;;4.70;;
16314;SDS011;8266;52.150;4.768;2023-09-18T06:32:08;5.88;;;5.25;;
16314;SDS011;8266;52.150;4.768;2023-09-18T06:34:36;5.55;;;5.05;;
16314;SDS011;8266;52.150;4.768;2023-09-18T06:37:08;5.32;;;4.78;;
16314;SDS011;8266;52.150;4.768;2023-09-18T06:39:37;5.03;;;4.63;;
16314;SDS011;8266;52.150;4.768;2023-09-18T06:42:04;7.05;;;4.80;;
16314;SDS011;8266;52.150;4.768;2023-09-18T06:44:31;5.70;;;5.05;;
16314;SDS011;8266;52.150;4.768;2023-09-18T06:46:59;6.13;;;5.13;;
16314;SDS011;8266;52.150;4.768;2023-09-18T06:49:26;6.05;;;5.47;;
16314;SDS011;8266;52.150;4.768;2023-09-18T06:51:54;5.93;;;5.40;;
16314;SDS011;8266;52.150;4.768;2023-09-18T06:54:22;6.22;;;5.38;;
16314;SDS011;8266;52.150;4.768;2023-09-18T06:56:49;9.35;;;6.53;;
16314;SDS011;8266;52.150;4.768;2023-09-18T06:59:16;6.85;;;5.90;;
16314;SDS011;8266;52.150;4.768;2023-09-18T07:01:43;8.70;;;6.05;;
16314;SDS011;8266;52.150;4.768;2023-09-18T07:04:10;8.05;;;6.38;;
16314;SDS011;8266;52.150;4.768;2023-09-18T07:06:37;7.03;;;6.20;;
16314;SDS011;8266;52.150;4.768;2023-09-18T07:09:05;6.47;;;5.70;;
16314;SDS011;8266;52.150;4.768;2023-09-18T07:11:33;6.85;;;6.28;;
16314;SDS011;8266;52.150;4.768;2023-09-18T07:14:00;6.90;;;6.10;;
16314;SDS011;8266;52.150;4.768;2023-09-18T07:16:27;8.48;;;6.50;;
16314;SDS011;8266;52.150;4.768;2023-09-18T07:18:54;5.70;;;5.20;;
16314;SDS011;8266;52.150;4.768;2023-09-18T07:21:21;6.25;;;5.60;;
16314;SDS011;8266;52.150;4.768;2023-09-18T07:23:48;5.53;;;5.03;;
16314;SDS011;8266;52.150;4.768;2023-09-18T07:26:17;5.90;;;5.32;;
16314;SDS011;8266;52.150;4.768;2023-09-18T07:28:44;5.55;;;5.13;;
16314;SDS011;8266;52.150;4.768;2023-09-18T07:31:11;4.90;;;4.43;;
16314;SDS011;8266;52.150;4.768;2023-09-18T07:33:39;4.75;;;4.30;;
16314;SDS011;8266;52.150;4.768;2023-09-18T07:36:07;4.90;;;4.32;;
16314;SDS011;8266;52.150;4.768;2023-09-18T07:38:35;4.20;;;3.70;;
16314;SDS011;8266;52.150;4.768;2023-09-18T07:41:02;6.00;;;3.95;;
16314;SDS011;8266;52.150;4.768;2023-09-18T07:43:31;4.13;;;3.72;;
16314;SDS011;8266;52.150;4.768;2023-09-18T07:45:58;4.45;;;3.92;;
16314;SDS011;8266;52.150;4.768;2023-09-18T07:48:26;4.10;;;3.80;;
16314;SDS011;8266;52.150;4.768;2023-09-18T07:50:53;4.10;;;3.70;;
16314;SDS011;8266;52.150;4.768;2023-09-18T07:53:20;4.00;;;3.70;;
16314;SDS011;8266;52.150;4.768;2023-09-18T07:55:47;4.60;;;3.28;;
16314;SDS011;8266;52.150;4.768;2023-09-18T07:58:21;3.42;;;2.78;;
16314;SDS011;8266;52.150;4.768;2023-09-18T08:00:54;3.20;;;2.90;;
16314;SDS011;8266;52.150;4.768;2023-09-18T08:03:22;4.60;;;2.90;;
16314;SDS011;8266;52.150;4.768;2023-09-18T08:05:49;3.17;;;2.80;;
16314;SDS011;8266;52.150;4.768;2023-09-18T08:08:19;5.25;;;2.35;;
16314;SDS011;8266;52.150;4.768;2023-09-18T08:10:47;5.93;;;2.33;;
16314;SDS011;8266;52.150;4.768;2023-09-18T08:13:14;2.80;;;2.40;;
16314;SDS011;8266;52.150;4.768;2023-09-18T08:15:41;4.05;;;2.53;;
16314;SDS011;8266;52.150;4.768;2023-09-18T08:18:10;4.68;;;2.40;;
16314;SDS011;8266;52.150;4.768;2023-09-18T08:20:39;3.90;;;2.78;;
16314;SDS011;8266;52.150;4.768;2023-09-18T08:23:07;4.47;;;2.22;;
16314;SDS011;8266;52.150;4.768;2023-09-18T08:25:34;2.92;;;2.70;;
16314;SDS011;8266;52.150;4.768;2023-09-18T08:28:02;4.68;;;2.80;;
16314;SDS011;8266;52.150;4.768;2023-09-18T08:30:29;3.95;;;2.70;;
16314;SDS011;8266;52.150;4.768;2023-09-18T08:32:56;2.88;;;2.35;;
16314;SDS011;8266;52.150;4.768;2023-09-18T08:35:25;3.10;;;2.80;;
16314;SDS011;8266;52.150;4.768;2023-09-18T08:37:54;4.38;;;2.53;;
16314;SDS011;8266;52.150;4.768;2023-09-18T08:40:22;2.88;;;2.30;;
16314;SDS011;8266;52.150;4.768;2023-09-18T08:42:51;3.15;;;2.70;;
16314;SDS011;8266;52.150;4.768;2023-09-18T08:45:21;5.95;;;2.50;;
16314;SDS011;8266;52.150;4.768;2023-09-18T08:47:52;5.18;;;2.70;;
16314;SDS011;8266;52.150;4.768;2023-09-18T08:50:20;3.65;;;2.72;;
16314;SDS011;8266;52.150;4.768;2023-09-18T08:52:49;3.30;;;2.65;;
16314;SDS011;8266;52.150;4.768;2023-09-18T08:55:20;4.03;;;2.67;;
16314;SDS011;8266;52.150;4.768;2023-09-18T08:57:47;2.65;;;2.40;;
16314;SDS011;8266;52.150;4.768;2023-09-18T09:00:16;2.85;;;2.63;;
16314;SDS011;8266;52.150;4.768;2023-09-18T09:02:43;4.00;;;2.80;;
16314;SDS011;8266;52.150;4.768;2023-09-18T09:05:10;2.78;;;2.53;;
16314;SDS011;8266;52.150;4.768;2023-09-18T09:07:38;4.05;;;2.58;;
16314;SDS011;8266;52.150;4.768;2023-09-18T09:10:06;3.42;;;2.33;;
16314;SDS011;8266;52.150;4.768;2023-09-18T09:15:22;2.33;;;1.98;;
16314;SDS011;8266;52.150;4.768;2023-09-18T09:17:52;3.45;;;2.13;;
16314;SDS011;8266;52.150;4.768;2023-09-18T09:20:27;3.13;;;2.00;;
16314;SDS011;8266;52.150;4.768;2023-09-18T09:22:59;3.38;;;2.05;;
16314;SDS011;8266;52.150;4.768;2023-09-18T09:25:28;4.40;;;2.00;;
16314;SDS011;8266;52.150;4.768;2023-09-18T09:27:58;2.38;;;1.80;;
16314;SDS011;8266;52.150;4.768;2023-09-18T09:30:27;2.13;;;1.92;;
16314;SDS011;8266;52.150;4.768;2023-09-18T09:32:55;3.40;;;1.83;;
16314;SDS011;8266;52.150;4.768;2023-09-18T09:35:23;3.47;;;2.00;;
16314;SDS011;8266;52.150;4.768;2023-09-18T09:37:53;5.60;;;1.70;;
16314;SDS011;8266;52.150;4.768;2023-09-18T09:40:22;2.00;;;1.52;;
16314;SDS011;8266;52.150;4.768;2023-09-18T09:42:52;3.53;;;1.85;;
16314;SDS011;8266;52.150;4.768;2023-09-18T09:45:25;2.13;;;1.75;;
16314;SDS011;8266;52.150;4.768;2023-09-18T09:47:54;2.88;;;1.70;;
16314;SDS011;8266;52.150;4.768;2023-09-18T09:50:22;3.00;;;1.80;;
16314;SDS011;8266;52.150;4.768;2023-09-18T09:52:50;2.40;;;1.58;;
16314;SDS011;8266;52.150;4.768;2023-09-18T09:55:20;2.55;;;1.80;;
16314;SDS011;8266;52.150;4.768;2023-09-18T09:57:50;1.98;;;1.60;;
16314;SDS011;8266;52.150;4.768;2023-09-18T10:00:22;1.85;;;1.60;;
16314;SDS011;8266;52.150;4.768;2023-09-18T10:02:59;1.95;;;1.75;;
16314;SDS011;8266;52.150;4.768;2023-09-18T10:05:29;2.00;;;1.85;;
16314;SDS011;8266;52.150;4.768;2023-09-18T10:07:58;3.85;;;2.95;;
16314;SDS011;8266;52.150;4.768;2023-09-18T10:10:28;2.65;;;2.45;;
16314;SDS011;8266;52.150;4.768;2023-09-18T10:12:59;2.42;;;2.22;;
16314;SDS011;8266;52.150;4.768;2023-09-18T10:15:31;4.72;;;2.00;;
16314;SDS011;8266;52.150;4.768;2023-09-18T10:18:04;2.13;;;1.77;;
16314;SDS011;8266;52.150;4.768;2023-09-18T10:20:42;2.00;;;1.80;;
16314;SDS011;8266;52.150;4.768;2023-09-18T10:23:15;2.10;;;1.73;;
16314;SDS011;8266;52.150;4.768;2023-09-18T10:25:50;2.55;;;1.80;;
16314;SDS011;8266;52.150;4.768;2023-09-18T10:28:23;1.52;;;1.42;;
16314;SDS011;8266;52.150;4.768;2023-09-18T10:30:53;3.70;;;1.63;;
16314;SDS011;8266;52.150;4.768;2023-09-18T10:33:22;3.55;;;1.92;;
16314;SDS011;8266;52.150;4.768;2023-09-18T10:35:50;2.03;;;1.70;;
16314;SDS011;8266;52.150;4.768;2023-09-18T10:38:19;2.08;;;1.98;;
16314;SDS011;8266;52.150;4.768;2023-09-18T10:40:47;2.30;;;1.67;;
16314;SDS011;8266;52.150;4.768;2023-09-18T10:43:15;3.28;;;2.30;;
16314;SDS011;8266;52.150;4.768;2023-09-18T10:45:45;2.40;;;1.80;;
16314;SDS011;8266;52.150;4.768;2023-09-18T10:48:13;1.90;;;1.73;;
16314;SDS011;8266;52.150;4.768;2023-09-18T10:50:41;2.05;;;1.88;;
16314;SDS011;8266;52.150;4.768;2023-09-18T10:53:11;2.70;;;2.13;;
16314;SDS011;8266;52.150;4.768;2023-09-18T10:55:38;4.45;;;2.15;;
16314;SDS011;8266;52.150;4.768;2023-09-18T10:58:08;7.05;;;1.83;;
16314;SDS011;8266;52.150;4.768;2023-09-18T11:00:37;3.53;;;1.98;;
16314;SDS011;8266;52.150;4.768;2023-09-18T11:03:13;4.43;;;2.00;;
16314;SDS011;8266;52.150;4.768;2023-09-18T11:05:43;3.30;;;1.77;;
16314;SDS011;8266;52.150;4.768;2023-09-18T11:08:27;2.20;;;1.73;;
16314;SDS011;8266;52.150;4.768;2023-09-18T11:10:57;4.55;;;1.90;;
16314;SDS011;8266;52.150;4.768;2023-09-18T11:13:29;2.80;;;1.45;;
16314;SDS011;8266;52.150;4.768;2023-09-18T11:16:00;2.22;;;1.80;;
16314;SDS011;8266;52.150;4.768;2023-09-18T11:18:33;2.10;;;1.80;;
16314;SDS011;8266;52.150;4.768;2023-09-18T11:21:07;2.13;;;1.65;;
16314;SDS011;8266;52.150;4.768;2023-09-18T11:23:35;3.70;;;1.40;;
16314;SDS011;8266;52.150;4.768;2023-09-18T11:26:04;2.17;;;1.42;;
16314;SDS011;8266;52.150;4.768;2023-09-18T11:28:33;1.95;;;1.65;;
16314;SDS011;8266;52.150;4.768;2023-09-18T11:31:00;4.88;;;1.60;;
16314;SDS011;8266;52.150;4.768;2023-09-18T11:33:32;1.33;;;1.23;;
16314;SDS011;8266;52.150;4.768;2023-09-18T11:36:05;2.10;;;1.40;;
16314;SDS011;8266;52.150;4.768;2023-09-18T11:38:34;2.22;;;1.50;;
16314;SDS011;8266;52.150;4.768;2023-09-18T11:41:19;3.78;;;1.80;;
16314;SDS011;8266;52.150;4.768;2023-09-18T11:43:48;2.13;;;1.65;;
16314;SDS011;8266;52.150;4.768;2023-09-18T11:46:17;3.10;;;1.80;;
16314;SDS011;8266;52.150;4.768;2023-09-18T11:48:49;2.78;;;1.85;;
16314;SDS011;8266;52.150;4.768;2023-09-18T11:51:22;4.90;;;1.80;;
16314;SDS011;8266;52.150;4.768;2023-09-18T11:53:54;3.03;;;2.00;;
16314;SDS011;8266;52.150;4.768;2023-09-18T11:56:22;1.90;;;1.73;;
16314;SDS011;8266;52.150;4.768;2023-09-18T11:58:50;4.03;;;2.40;;
16314;SDS011;8266;52.150;4.768;2023-09-18T12:01:20;2.40;;;2.08;;
16314;SDS011;8266;52.150;4.768;2023-09-18T12:03:53;2.42;;;2.22;;
16314;SDS011;8266;52.150;4.768;2023-09-18T12:06:21;3.15;;;2.20;;
16314;SDS011;8266;52.150;4.768;2023-09-18T12:08:48;3.30;;;2.40;;
16314;SDS011;8266;52.150;4.768;2023-09-18T12:11:18;3.47;;;2.55;;
16314;SDS011;8266;52.150;4.768;2023-09-18T12:13:45;2.60;;;2.40;;
16314;SDS011;8266;52.150;4.768;2023-09-18T12:16:13;2.80;;;2.50;;
16314;SDS011;8266;52.150;4.768;2023-09-18T12:18:44;3.33;;;2.08;;
16314;SDS011;8266;52.150;4.768;2023-09-18T12:21:14;2.55;;;2.30;;
16314;SDS011;8266;52.150;4.768;2023-09-18T12:23:43;2.70;;;2.42;;
16314;SDS011;8266;52.150;4.768;2023-09-18T12:26:11;6.25;;;2.33;;
16314;SDS011;8266;52.150;4.768;2023-09-18T12:28:39;2.53;;;1.92;;
16314;SDS011;8266;52.150;4.768;2023-09-18T12:31:09;3.80;;;1.95;;
16314;SDS011;8266;52.150;4.768;2023-09-18T12:33:37;2.30;;;1.90;;
16314;SDS011;8266;52.150;4.768;2023-09-18T12:36:05;2.80;;;2.00;;
16314;SDS011;8266;52.150;4.768;2023-09-18T12:38:34;2.40;;;2.20;;
16314;SDS011;8266;52.150;4.768;2023-09-18T12:41:02;2.00;;;1.90;;
16314;SDS011;8266;52.150;4.768;2023-09-18T12:43:35;2.42;;;2.05;;
16314;SDS011;8266;52.150;4.768;2023-09-18T12:46:04;4.20;;;2.05;;
16314;SDS011;8266;52.150;4.768;2023-09-18T12:48:32;3.42;;;1.88;;
16314;SDS011;8266;52.150;4.768;2023-09-18T12:51:03;4.75;;;2.30;;
16314;SDS011;8266;52.150;4.768;2023-09-18T12:53:30;2.92;;;1.67;;
16314;SDS011;8266;52.150;4.768;2023-09-18T12:56:09;3.38;;;1.90;;
16314;SDS011;8266;52.150;4.768;2023-09-18T12:58:38;2.95;;;1.83;;
16314;SDS011;8266;52.150;4.768;2023-09-18T13:01:06;2.35;;;1.95;;
16314;SDS011;8266;52.150;4.768;2023-09-18T13:03:35;2.85;;;2.30;;
16314;SDS011;8266;52.150;4.768;2023-09-18T13:06:08;2.45;;;2.05;;
16314;SDS011;8266;52.150;4.768;2023-09-18T13:08:35;3.80;;;2.03;;
16314;SDS011;8266;52.150;4.768;2023-09-18T13:11:02;3.22;;;2.22;;
16314;SDS011;8266;52.150;4.768;2023-09-18T13:13:33;4.47;;;1.80;;
16314;SDS011;8266;52.150;4.768;2023-09-18T13:16:00;6.65;;;1.75;;
16314;SDS011;8266;52.150;4.768;2023-09-18T13:18:30;3.95;;;2.00;;
16314;SDS011;8266;52.150;4.768;2023-09-18T13:20:57;2.70;;;1.75;;
16314;SDS011;8266;52.150;4.768;2023-09-18T13:23:28;2.97;;;1.90;;
16314;SDS011;8266;52.150;4.768;2023-09-18T13:25:59;2.40;;;1.90;;
16314;SDS011;8266;52.150;4.768;2023-09-18T13:28:28;2.63;;;1.75;;
16314;SDS011;8266;52.150;4.768;2023-09-18T13:30:57;2.75;;;1.80;;
16314;SDS011;8266;52.150;4.768;2023-09-18T13:33:25;2.72;;;1.55;;
16314;SDS011;8266;52.150;4.768;2023-09-18T13:35:52;1.77;;;1.30;;
16314;SDS011;8266;52.150;4.768;2023-09-18T13:38:21;2.13;;;1.38;;
16314;SDS011;8266;52.150;4.768;2023-09-18T13:40:48;3.60;;;1.70;;
16314;SDS011;8266;52.150;4.768;2023-09-18T13:43:16;2.22;;;1.60;;
16314;SDS011;8266;52.150;4.768;2023-09-18T13:45:44;2.75;;;1.67;;
16314;SDS011;8266;52.150;4.768;2023-09-18T13:48:12;3.55;;;1.35;;
16314;SDS011;8266;52.150;4.768;2023-09-18T13:50:40;1.23;;;1.13;;
16314;SDS011;8266;52.150;4.768;2023-09-18T13:53:07;1.63;;;1.27;;
16314;SDS011;8266;52.150;4.768;2023-09-18T13:55:35;1.60;;;1.20;;
16314;SDS011;8266;52.150;4.768;2023-09-18T13:58:03;3.25;;;1.40;;
16314;SDS011;8266;52.150;4.768;2023-09-18T14:00:30;2.05;;;1.60;;
16314;SDS011;8266;52.150;4.768;2023-09-18T14:02:58;2.22;;;1.42;;
16314;SDS011;8266;52.150;4.768;2023-09-18T14:05:26;2.72;;;1.48;;
16314;SDS011;8266;52.150;4.768;2023-09-18T14:07:55;3.78;;;1.75;;
16314;SDS011;8266;52.150;4.768;2023-09-18T14:10:25;3.15;;;1.88;;
16314;SDS011;8266;52.150;4.768;2023-09-18T14:12:52;3.22;;;1.92;;
16314;SDS011;8266;52.150;4.768;2023-09-18T14:15:19;2.58;;;2.35;;
16314;SDS011;8266;52.150;4.768;2023-09-18T14:17:46;2.20;;;1.90;;
16314;SDS011;8266;52.150;4.768;2023-09-18T14:20:14;2.70;;;2.15;;
16314;SDS011;8266;52.150;4.768;2023-09-18T14:22:45;2.33;;;1.88;;
16314;SDS011;8266;52.150;4.768;2023-09-18T14:25:14;2.72;;;1.70;;
16314;SDS011;8266;52.150;4.768;2023-09-18T14:27:42;2.03;;;1.60;;
16314;SDS011;8266;52.150;4.768;2023-09-18T14:30:09;3.15;;;1.92;;
16314;SDS011;8266;52.150;4.768;2023-09-18T14:32:38;3.78;;;1.63;;
16314;SDS011;8266;52.150;4.768;2023-09-18T14:35:06;2.58;;;1.85;;
16314;SDS011;8266;52.150;4.768;2023-09-18T14:37:34;2.60;;;2.00;;
16314;SDS011;8266;52.150;4.768;2023-09-18T14:40:03;3.33;;;2.00;;
16314;SDS011;8266;52.150;4.768;2023-09-18T14:42:35;2.65;;;2.17;;
16314;SDS011;8266;52.150;4.768;2023-09-18T14:45:02;4.65;;;2.70;;
16314;SDS011;8266;52.150;4.768;2023-09-18T14:47:30;3.67;;;2.33;;
16314;SDS011;8266;52.150;4.768;2023-09-18T14:49:57;3.10;;;2.10;;
16314;SDS011;8266;52.150;4.768;2023-09-18T14:52:26;2.85;;;2.20;;
16314;SDS011;8266;52.150;4.768;2023-09-18T14:54:54;6.90;;;1.77;;
16314;SDS011;8266;52.150;4.768;2023-09-18T14:57:22;1.60;;;1.50;;
16314;SDS011;8266;52.150;4.768;2023-09-18T14:59:49;3.70;;;1.60;;
16314;SDS011;8266;52.150;4.768;2023-09-18T15:02:16;2.85;;;1.73;;
16314;SDS011;8266;52.150;4.768;2023-09-18T15:04:44;3.10;;;1.73;;